createdAt,value
2018-05-11T00:00:47.106Z,94.30
2018-05-11T00:03:14.558Z,94.30
2018-05-11T00:05:41.999Z,94.40
2018-05-11T00:08:09.543Z,94.30
2018-05-11T00:10:36.967Z,94.20
2018-05-11T00:13:04.429Z,94.20
2018-05-11T00:15:31.860Z,94.20
2018-05-11T00:17:59.694Z,94.20
2018-05-11T00:20:27.147Z,94.20
2018-05-11T00:22:54.618Z,94.60
2018-05-11T00:25:22.056Z,94.20
2018-05-11T00:27:49.568Z,94.30
2018-05-11T00:30:17.044Z,94.30
2018-05-11T00:32:44.496Z,94.30
2018-05-11T00:35:11.997Z,94.40
2018-05-11T00:37:39.453Z,94.40
2018-05-11T00:40:06.962Z,94.40
2018-05-11T00:42:34.742Z,94.50
2018-05-11T00:45:02.197Z,94.40
2018-05-11T00:47:30.054Z,94.50
2018-05-11T00:49:57.484Z,94.50
2018-05-11T00:52:24.945Z,94.60
2018-05-11T00:54:52.417Z,94.80
2018-05-11T00:57:19.933Z,94.80
2018-05-11T00:59:47.401Z,95.00
2018-05-11T01:02:14.858Z,94.90
2018-05-11T01:04:42.333Z,95.00
2018-05-11T01:07:10.184Z,95.00
2018-05-11T01:09:37.635Z,95.10
2018-05-11T01:12:05.092Z,95.20
2018-05-11T01:14:32.637Z,95.10
2018-05-11T01:17:00.190Z,95.10
2018-05-11T01:19:27.569Z,95.20
2018-05-11T01:21:55.025Z,95.30
2018-05-11T01:24:22.826Z,95.30
2018-05-11T01:26:50.277Z,95.30
2018-05-11T01:29:17.754Z,95.30
2018-05-11T01:31:45.210Z,95.30
2018-05-11T01:34:12.661Z,95.30
2018-05-11T01:36:40.133Z,95.30
2018-05-11T01:39:07.813Z,95.30
2018-05-11T01:41:35.266Z,95.30
2018-05-11T01:44:02.717Z,95.40
2018-05-11T01:46:30.159Z,95.40
2018-05-11T01:48:57.675Z,95.50
2018-05-11T01:51:25.068Z,95.40
2018-05-11T01:53:52.514Z,95.50
2018-05-11T01:56:19.963Z,95.50
2018-05-11T01:58:47.441Z,95.40
2018-05-11T02:01:15.029Z,95.40
2018-05-11T02:03:42.512Z,95.40
2018-05-11T02:06:09.952Z,95.40
2018-05-11T02:08:37.503Z,95.50
2018-05-11T02:11:04.946Z,95.40
2018-05-11T02:13:32.439Z,95.30
2018-05-11T02:15:59.883Z,95.40
2018-05-11T02:18:27.318Z,95.50
2018-05-11T02:20:54.856Z,95.50
2018-05-11T02:23:22.211Z,95.30
2018-05-11T02:25:49.759Z,95.20
2018-05-11T02:28:17.139Z,95.20
2018-05-11T02:30:44.584Z,95.30
2018-05-11T02:33:12.047Z,95.40
2018-05-11T02:35:39.487Z,95.40
2018-05-11T02:38:07.048Z,95.50
2018-05-11T02:40:34.460Z,95.60
2018-05-11T02:43:02.265Z,95.70
2018-05-11T02:45:29.709Z,95.70
2018-05-11T02:47:57.224Z,95.50
2018-05-11T02:50:24.687Z,95.50
2018-05-11T02:52:52.150Z,95.50
2018-05-11T02:55:20.012Z,95.50
2018-05-11T02:57:47.466Z,95.50
2018-05-11T03:00:14.909Z,95.60
2018-05-11T03:02:42.434Z,95.70
2018-05-11T03:05:09.860Z,95.70
2018-05-11T03:07:37.407Z,95.90
2018-05-11T03:10:04.879Z,95.90
2018-05-11T03:12:32.323Z,95.80
2018-05-11T03:14:59.768Z,95.80
2018-05-11T03:17:27.203Z,95.90
2018-05-11T03:19:54.643Z,95.90
2018-05-11T03:22:22.105Z,96.00
2018-05-11T03:24:49.544Z,96.00
2018-05-11T03:27:16.996Z,96.00
2018-05-11T03:29:44.435Z,96.10
2018-05-11T03:32:11.868Z,96.10
2018-05-11T03:34:39.396Z,96.20
2018-05-11T03:37:06.832Z,96.20
2018-05-11T03:39:34.276Z,96.40
2018-05-11T03:42:01.857Z,96.50
2018-05-11T03:44:29.248Z,96.80
2018-05-11T03:46:56.717Z,96.70
2018-05-11T03:49:24.160Z,96.90
2018-05-11T03:51:51.617Z,96.90
2018-05-11T03:54:19.055Z,96.80
2018-05-11T03:56:46.504Z,96.80
2018-05-11T03:59:13.936Z,96.70
2018-05-11T04:01:53.086Z,96.70
2018-05-11T04:04:33.409Z,97.00
2018-05-11T04:07:12.603Z,96.80
2018-05-11T04:09:40.813Z,96.80
2018-05-11T04:12:08.264Z,96.80
2018-05-11T04:14:36.057Z,96.80
2018-05-11T04:17:03.924Z,96.80
2018-05-11T04:19:31.435Z,97.00
2018-05-11T04:21:58.888Z,97.00
2018-05-11T04:24:27.103Z,96.80
2018-05-11T04:26:54.601Z,96.80
2018-05-11T04:29:22.047Z,96.90
2018-05-11T04:31:49.491Z,96.80
2018-05-11T04:34:16.927Z,96.80
2018-05-11T04:36:44.367Z,96.80
2018-05-11T04:39:11.900Z,96.80
2018-05-11T04:41:39.350Z,96.90
2018-05-11T04:44:06.813Z,96.80
2018-05-11T04:46:34.256Z,96.80
2018-05-11T04:49:01.703Z,96.90
2018-05-11T04:51:29.244Z,97.00
2018-05-11T04:53:56.692Z,97.10
2018-05-11T04:56:24.149Z,97.00
2018-05-11T04:58:51.674Z,96.90
2018-05-11T05:01:19.490Z,96.80
2018-05-11T05:03:46.927Z,96.70
2018-05-11T05:06:14.447Z,96.60
2018-05-11T05:08:41.883Z,96.60
2018-05-11T05:11:09.345Z,96.60
2018-05-11T05:13:36.805Z,96.80
2018-05-11T05:16:04.244Z,96.30
2018-05-11T05:18:31.687Z,96.20
2018-05-11T05:20:59.140Z,96.20
2018-05-11T05:23:26.696Z,96.20
2018-05-11T05:25:54.135Z,96.20
2018-05-11T05:28:21.579Z,96.00
2018-05-11T05:30:49.011Z,96.00
2018-05-11T05:33:16.489Z,95.90
2018-05-11T05:35:43.935Z,95.80
2018-05-11T05:38:11.478Z,95.70
2018-05-11T05:40:38.912Z,95.70
2018-05-11T05:43:06.352Z,95.60
2018-05-11T05:45:33.799Z,95.40
2018-05-11T05:48:01.236Z,95.30
2018-05-11T05:50:28.688Z,95.00
2018-05-11T05:52:56.159Z,94.60
2018-05-11T05:55:23.609Z,94.40
2018-05-11T05:57:51.103Z,94.30
2018-05-11T06:00:18.616Z,94.30
2018-05-11T06:02:46.090Z,94.20
2018-05-11T06:05:13.536Z,94.00
2018-05-11T06:07:40.971Z,93.90
2018-05-11T06:10:08.467Z,93.60
2018-05-11T06:12:35.908Z,93.50
2018-05-11T06:15:03.351Z,93.20
2018-05-11T06:17:30.799Z,93.20
2018-05-11T06:19:58.232Z,93.10
2018-05-11T06:22:25.738Z,93.00
2018-05-11T06:24:53.207Z,93.00
2018-05-11T06:27:20.703Z,93.00
2018-05-11T06:29:48.139Z,92.70
2018-05-11T06:32:15.584Z,92.60
2018-05-11T06:34:43.280Z,92.20
2018-05-11T06:37:10.723Z,92.00
2018-05-11T06:39:38.324Z,91.70
2018-05-11T06:42:06.331Z,90.30
2018-05-11T06:44:33.789Z,89.80
2018-05-11T06:47:02.354Z,89.40
2018-05-11T06:49:29.880Z,88.80
2018-05-11T06:51:57.342Z,88.40
2018-05-11T06:54:24.800Z,88.10
2018-05-11T06:56:52.604Z,87.50
2018-05-11T06:59:20.557Z,87.20
2018-05-11T07:01:48.441Z,87.60
2018-05-11T07:04:15.919Z,87.70
2018-05-11T07:06:43.673Z,87.20
2018-05-11T07:09:11.137Z,87.00
2018-05-11T07:11:39.092Z,86.50
2018-05-11T07:14:06.983Z,86.20
2018-05-11T07:16:34.411Z,85.80
2018-05-11T07:19:02.313Z,85.10
2018-05-11T07:21:30.349Z,84.30
2018-05-11T07:23:58.425Z,84.50
2018-05-11T07:26:26.457Z,83.20
2018-05-11T07:28:54.572Z,83.00
2018-05-11T07:31:22.819Z,83.20
2018-05-11T07:33:51.516Z,83.10
2018-05-11T07:36:19.647Z,82.80
2018-05-11T07:38:47.491Z,82.90
2018-05-11T07:41:15.713Z,82.30
2018-05-11T07:43:43.378Z,82.50
2018-05-11T07:46:11.274Z,82.40
2018-05-11T07:48:39.829Z,82.80
2018-05-11T07:51:07.496Z,83.60
2018-05-11T07:53:35.565Z,83.70
2018-05-11T07:56:03.341Z,84.00
2018-05-11T07:58:31.351Z,82.40
2018-05-11T08:00:59.549Z,81.50
2018-05-11T08:03:27.467Z,81.40
2018-05-11T08:05:55.464Z,80.90
2018-05-11T08:08:23.118Z,80.20
2018-05-11T08:10:51.094Z,79.90
2018-05-11T08:13:19.390Z,79.00
2018-05-11T08:15:47.370Z,79.00
2018-05-11T08:18:15.483Z,79.10
2018-05-11T08:20:43.629Z,79.50
2018-05-11T08:23:11.654Z,79.50
2018-05-11T08:25:39.524Z,79.90
2018-05-11T08:28:07.530Z,79.00
2018-05-11T08:30:35.203Z,77.70
2018-05-11T08:33:03.172Z,75.20
2018-05-11T08:35:30.928Z,75.50
2018-05-11T08:37:58.470Z,74.60
2018-05-11T08:40:25.932Z,73.30
2018-05-11T08:42:53.602Z,74.20
2018-05-11T08:45:21.223Z,74.20
2018-05-11T08:47:49.428Z,72.70
2018-05-11T08:50:17.651Z,72.60
2018-05-11T08:52:45.447Z,72.50
2018-05-11T08:55:13.090Z,72.40
2018-05-11T08:57:40.552Z,71.60
2018-05-11T09:00:08.480Z,71.10
2018-05-11T09:02:35.964Z,70.50
2018-05-11T09:05:03.459Z,70.70
2018-05-11T09:07:31.609Z,70.50
2018-05-11T09:09:59.480Z,69.00
2018-05-11T09:12:26.921Z,68.30
2018-05-11T09:14:54.494Z,68.30
2018-05-11T09:17:22.462Z,67.50
2018-05-11T09:19:50.285Z,65.10
2018-05-11T09:22:18.132Z,63.90
2018-05-11T09:24:45.568Z,64.80
2018-05-11T09:27:13.519Z,64.30
2018-05-11T09:29:41.152Z,64.00
2018-05-11T09:32:08.554Z,60.30
2018-05-11T09:34:36.603Z,58.70
2018-05-11T09:37:04.448Z,58.30
2018-05-11T09:39:32.686Z,57.50
2018-05-11T09:42:01.730Z,53.00
2018-05-11T09:44:29.390Z,52.90
2018-05-11T09:46:56.991Z,50.50
2018-05-11T09:49:24.583Z,48.30
2018-05-11T09:51:52.124Z,48.90
2018-05-11T09:54:19.566Z,48.70
2018-05-11T09:56:47.695Z,47.50
2018-05-11T09:59:15.758Z,47.70
2018-05-11T10:01:43.467Z,46.00
2018-05-11T10:04:11.493Z,44.50
2018-05-11T10:06:39.219Z,45.40
2018-05-11T10:09:07.444Z,42.30
2018-05-11T10:11:35.751Z,42.90
2018-05-11T10:14:03.721Z,40.60
2018-05-11T10:16:31.271Z,41.90
2018-05-11T10:18:59.164Z,42.30
2018-05-11T10:21:26.613Z,42.60
2018-05-11T10:23:54.403Z,42.00
2018-05-11T10:26:22.236Z,41.80
2018-05-11T10:28:50.660Z,41.00
2018-05-11T10:31:18.192Z,40.00
2018-05-11T10:33:45.624Z,39.90
2018-05-11T10:36:13.507Z,39.70
2018-05-11T10:38:41.648Z,37.90
2018-05-11T10:41:09.555Z,37.20
2018-05-11T10:43:37.757Z,34.90
2018-05-11T10:46:05.645Z,36.20
2018-05-11T10:48:33.633Z,35.90
2018-05-11T10:51:01.005Z,35.70
2018-05-11T10:53:29.260Z,36.60
2018-05-11T10:55:57.215Z,37.80
2018-05-11T10:58:24.651Z,36.10
2018-05-11T11:00:52.659Z,35.50
2018-05-11T11:03:20.544Z,35.90
2018-05-11T11:05:49.108Z,34.60
2018-05-11T11:08:16.891Z,34.10
2018-05-11T11:10:44.760Z,34.80
2018-05-11T11:13:12.770Z,34.60
2018-05-11T11:15:40.577Z,32.20
2018-05-11T11:18:08.247Z,30.80
2018-05-11T11:20:35.676Z,32.30
2018-05-11T11:23:04.224Z,33.50
2018-05-11T11:25:32.729Z,33.40
2018-05-11T11:28:00.242Z,29.90
2018-05-11T11:30:28.251Z,30.50
2018-05-11T11:32:55.685Z,32.30
2018-05-11T11:35:24.605Z,30.70
2018-05-11T11:37:52.061Z,28.10
2018-05-11T11:40:19.667Z,29.10
2018-05-11T11:42:47.248Z,30.10
2018-05-11T11:45:15.705Z,31.30
2018-05-11T11:47:43.669Z,32.80
2018-05-11T11:50:11.724Z,33.90
2018-05-11T11:52:39.392Z,34.00
2018-05-11T11:55:07.660Z,32.90
2018-05-11T11:57:35.827Z,33.20
2018-05-11T12:00:03.613Z,34.10
2018-05-11T12:02:31.525Z,35.10
2018-05-11T12:05:00.737Z,38.40
2018-05-11T12:07:28.734Z,38.40
2018-05-11T12:09:56.693Z,36.10
2018-05-11T12:12:24.414Z,36.30
2018-05-11T12:14:52.306Z,36.10
2018-05-11T12:17:19.814Z,35.40
2018-05-11T12:19:47.684Z,35.20
2018-05-11T12:22:16.529Z,35.00
2018-05-11T12:24:44.656Z,36.90
2018-05-11T12:27:12.091Z,36.90
2018-05-11T12:29:39.824Z,35.40
2018-05-11T12:32:07.853Z,35.50
2018-05-11T12:34:35.703Z,35.60
2018-05-11T12:37:03.830Z,35.80
2018-05-11T12:39:31.545Z,36.10
2018-05-11T12:41:59.382Z,36.10
2018-05-11T12:44:27.213Z,35.60
2018-05-11T12:46:55.571Z,35.90
2018-05-11T12:49:24.062Z,35.80
2018-05-11T12:51:52.791Z,35.70
2018-05-11T12:54:20.716Z,34.80
2018-05-11T12:56:48.809Z,34.20
2018-05-11T12:59:16.484Z,36.00
2018-05-11T13:01:43.927Z,35.70
2018-05-11T13:04:11.382Z,37.00
2018-05-11T13:06:38.827Z,36.60
2018-05-11T13:09:06.282Z,37.00
2018-05-11T13:11:33.749Z,35.90
2018-05-11T13:14:01.249Z,36.40
2018-05-11T13:16:28.700Z,35.80
2018-05-11T13:18:56.136Z,35.80
2018-05-11T13:21:23.585Z,35.60
2018-05-11T13:23:51.012Z,37.10
2018-05-11T13:26:18.485Z,38.30
2018-05-11T13:28:45.931Z,38.40
2018-05-11T13:31:13.516Z,39.50
2018-05-11T13:33:41.376Z,40.10
2018-05-11T13:36:08.813Z,39.70
2018-05-11T13:38:36.253Z,39.50
2018-05-11T13:41:03.694Z,40.40
2018-05-11T13:43:31.899Z,41.50
2018-05-11T13:45:59.924Z,41.40
2018-05-11T13:48:27.542Z,41.60
2018-05-11T13:50:54.920Z,40.30
2018-05-11T13:53:22.371Z,41.10
2018-05-11T13:55:49.803Z,41.20
2018-05-11T13:58:17.269Z,40.90
2018-05-11T14:00:44.702Z,42.10
2018-05-11T14:03:12.189Z,42.10
2018-05-11T14:05:39.596Z,41.80
2018-05-11T14:08:07.050Z,42.60
2018-05-11T14:10:34.528Z,42.70
2018-05-11T14:13:01.977Z,42.10
2018-05-11T14:15:29.496Z,41.20
2018-05-11T14:17:57.323Z,40.20
2018-05-11T14:20:24.790Z,38.60
2018-05-11T14:22:52.253Z,39.50
2018-05-11T14:25:19.689Z,39.50
2018-05-11T14:27:47.168Z,40.50
2018-05-11T14:30:14.631Z,40.10
2018-05-11T14:32:42.088Z,38.90
2018-05-11T14:35:09.540Z,37.90
2018-05-11T14:37:36.992Z,35.10
2018-05-11T14:40:04.513Z,36.00
2018-05-11T14:42:31.958Z,36.40
2018-05-11T14:44:59.396Z,36.30
2018-05-11T14:47:26.843Z,36.80
2018-05-11T14:49:54.268Z,37.80
2018-05-11T14:52:21.860Z,38.50
2018-05-11T14:54:49.383Z,39.30
2018-05-11T14:57:16.750Z,38.90
2018-05-11T14:59:44.957Z,39.90
2018-05-11T15:02:12.528Z,39.80
2018-05-11T15:04:39.967Z,40.20
2018-05-11T15:07:07.415Z,41.80
2018-05-11T15:09:34.843Z,41.70
2018-05-11T15:12:02.293Z,42.70
2018-05-11T15:14:29.739Z,43.00
2018-05-11T15:16:57.228Z,42.80
2018-05-11T15:19:24.680Z,43.00
2018-05-11T15:21:52.123Z,43.80
2018-05-11T15:24:19.578Z,44.40
2018-05-11T15:26:46.999Z,44.90
2018-05-11T15:29:14.524Z,45.00
2018-05-11T15:31:41.993Z,45.00
2018-05-11T15:34:09.430Z,45.80
2018-05-11T15:36:36.887Z,46.10
2018-05-11T15:39:04.370Z,45.60
2018-05-11T15:41:31.845Z,45.80
2018-05-11T15:44:00.200Z,46.50
2018-05-11T15:46:27.627Z,45.30
2018-05-11T15:48:55.069Z,46.90
2018-05-11T15:51:22.530Z,47.50
2018-05-11T15:53:49.967Z,46.00
2018-05-11T15:56:17.414Z,47.00
2018-05-11T15:58:44.848Z,46.50
2018-05-11T16:01:12.360Z,46.10
2018-05-11T16:03:39.807Z,46.10
2018-05-11T16:06:07.236Z,46.70
2018-05-11T16:08:34.825Z,47.00
2018-05-11T16:11:02.279Z,46.70
2018-05-11T16:13:29.712Z,46.70
2018-05-11T16:15:57.923Z,45.80
2018-05-11T16:18:25.384Z,45.70
2018-05-11T16:20:52.842Z,46.50
2018-05-11T16:23:20.283Z,47.40
2018-05-11T16:25:47.715Z,47.80
2018-05-11T16:28:15.201Z,47.80
2018-05-11T16:30:42.633Z,47.70
2018-05-11T16:33:10.176Z,47.60
2018-05-11T16:35:37.633Z,48.70
2018-05-11T16:38:05.071Z,49.20
2018-05-11T16:40:32.602Z,49.00
2018-05-11T16:42:59.947Z,49.40
2018-05-11T16:45:28.172Z,49.30
2018-05-11T16:47:55.600Z,49.10
2018-05-11T16:50:23.042Z,49.30
2018-05-11T16:52:50.488Z,49.40
2018-05-11T16:55:17.995Z,49.60
2018-05-11T16:57:45.388Z,49.10
2018-05-11T17:00:12.819Z,49.20
2018-05-11T17:02:40.254Z,49.80
2018-05-11T17:05:07.705Z,50.00
2018-05-11T17:07:35.177Z,49.50
2018-05-11T17:10:02.638Z,50.20
2018-05-11T17:12:30.236Z,49.90
2018-05-11T17:14:57.896Z,49.60
2018-05-11T17:17:25.699Z,51.00
2018-05-11T17:19:53.250Z,50.50
2018-05-11T17:22:20.727Z,50.70
2018-05-11T17:24:48.172Z,51.90
2018-05-11T17:27:15.612Z,50.90
2018-05-11T17:29:44.248Z,51.30
2018-05-11T17:32:11.865Z,52.10
2018-05-11T17:34:40.424Z,53.00
2018-05-11T17:37:07.860Z,52.80
2018-05-11T17:39:35.296Z,53.00
2018-05-11T17:42:02.747Z,53.20
2018-05-11T17:44:30.205Z,52.90
2018-05-11T17:46:58.443Z,53.70
2018-05-11T17:49:25.897Z,53.60
2018-05-11T17:51:53.359Z,54.80
2018-05-11T17:54:21.023Z,55.20
2018-05-11T17:56:48.494Z,54.80
2018-05-11T17:59:15.957Z,55.40
2018-05-11T18:01:43.388Z,55.50
2018-05-11T18:04:10.823Z,55.20
2018-05-11T18:06:38.308Z,55.60
2018-05-11T18:09:05.726Z,55.70
2018-05-11T18:11:33.178Z,56.10
2018-05-11T18:14:00.617Z,56.20
2018-05-11T18:16:28.043Z,56.30
2018-05-11T18:18:55.576Z,56.80
2018-05-11T18:21:23.101Z,56.60
2018-05-11T18:23:50.543Z,56.60
2018-05-11T18:26:18.015Z,56.60
2018-05-11T18:28:45.457Z,56.90
2018-05-11T18:31:13.040Z,57.30
2018-05-11T18:33:40.509Z,57.60
2018-05-11T18:36:08.300Z,58.10
2018-05-11T18:38:35.741Z,58.20
2018-05-11T18:41:03.609Z,58.40
2018-05-11T18:43:31.056Z,58.70
2018-05-11T18:45:58.497Z,58.90
2018-05-11T18:48:26.025Z,58.90
2018-05-11T18:50:53.858Z,59.00
2018-05-11T18:53:21.450Z,59.50
2018-05-11T18:55:48.804Z,59.70
2018-05-11T18:58:16.265Z,59.60
2018-05-11T19:00:43.712Z,59.60
2018-05-11T19:03:11.179Z,59.60
2018-05-11T19:05:38.627Z,59.70
2018-05-11T19:08:06.100Z,59.80
2018-05-11T19:10:33.573Z,59.60
2018-05-11T19:13:01.023Z,59.60
2018-05-11T19:15:28.492Z,59.70
2018-05-11T19:17:56.014Z,59.80
2018-05-11T19:20:23.417Z,60.00
2018-05-11T19:22:50.851Z,60.00
2018-05-11T19:25:18.309Z,60.20
2018-05-11T19:27:46.675Z,60.30
2018-05-11T19:30:14.140Z,60.60
2018-05-11T19:32:41.576Z,60.70
2018-05-11T19:35:09.071Z,60.90
2018-05-11T19:37:36.534Z,61.10
2018-05-11T19:40:03.988Z,61.20
2018-05-11T19:42:31.455Z,61.30
2018-05-11T19:44:58.913Z,61.30
2018-05-11T19:47:26.369Z,61.40
2018-05-11T19:49:53.983Z,61.50
2018-05-11T19:52:21.439Z,61.80
2018-05-11T19:54:48.913Z,62.10
2018-05-11T19:57:16.382Z,62.50
2018-05-11T19:59:43.903Z,62.80
2018-05-11T20:02:11.360Z,63.10
2018-05-11T20:04:38.836Z,63.70
2018-05-11T20:07:06.252Z,64.40
2018-05-11T20:09:33.699Z,64.90
2018-05-11T20:12:01.153Z,65.20
2018-05-11T20:14:29.355Z,67.10
2018-05-11T20:16:56.810Z,67.00
2018-05-11T20:19:24.241Z,68.10
2018-05-11T20:21:51.802Z,68.70
2018-05-11T20:24:19.241Z,69.10
2018-05-11T20:26:46.678Z,69.50
2018-05-11T20:29:14.147Z,69.70
2018-05-11T20:31:41.586Z,70.10
2018-05-11T20:34:09.064Z,69.90
2018-05-11T20:36:36.507Z,69.40
2018-05-11T20:39:03.946Z,69.30
2018-05-11T20:41:31.438Z,69.20
2018-05-11T20:43:59.328Z,69.30
2018-05-11T20:46:26.823Z,69.50
2018-05-11T20:48:54.269Z,69.70
2018-05-11T20:51:21.729Z,69.90
2018-05-11T20:53:49.181Z,70.20
2018-05-11T20:56:16.612Z,70.40
2018-05-11T20:58:44.137Z,70.40
2018-05-11T21:01:11.584Z,70.50
2018-05-11T21:03:39.058Z,70.80
2018-05-11T21:06:06.504Z,70.80
2018-05-11T21:08:34.121Z,70.90
2018-05-11T21:11:01.803Z,71.10
2018-05-11T21:13:29.257Z,71.30
2018-05-11T21:15:56.715Z,71.50
2018-05-11T21:18:24.251Z,71.80
2018-05-11T21:20:51.704Z,73.00
2018-05-11T21:23:19.155Z,72.50
2018-05-11T21:25:46.590Z,73.00
2018-05-11T21:28:14.069Z,74.20
2018-05-11T21:30:41.511Z,73.80
2018-05-11T21:33:08.964Z,74.20
2018-05-11T21:35:36.421Z,74.40
2018-05-11T21:38:03.866Z,74.90
2018-05-11T21:40:31.341Z,75.10
2018-05-11T21:42:58.848Z,75.40
2018-05-11T21:45:26.659Z,75.70
2018-05-11T21:47:54.118Z,75.80
2018-05-11T21:50:21.568Z,76.00
2018-05-11T21:52:49.083Z,76.10
2018-05-11T21:55:16.556Z,76.20
2018-05-11T21:57:43.995Z,76.50
2018-05-11T22:00:11.456Z,77.50
2018-05-11T22:02:38.884Z,77.00
2018-05-11T22:05:06.325Z,77.40
2018-05-11T22:07:33.786Z,77.90
2018-05-11T22:10:01.219Z,78.10
2018-05-11T22:12:28.667Z,78.50
2018-05-11T22:14:56.249Z,79.10
2018-05-11T22:17:23.704Z,79.30
2018-05-11T22:19:51.234Z,79.80
2018-05-11T22:22:18.676Z,80.20
2018-05-11T22:24:46.122Z,80.40
2018-05-11T22:27:13.576Z,80.80
2018-05-11T22:29:41.019Z,81.10
2018-05-11T22:32:08.502Z,81.50
2018-05-11T22:34:36.096Z,82.70
2018-05-11T22:37:03.556Z,82.00
2018-05-11T22:39:30.997Z,82.20
2018-05-11T22:41:59.243Z,82.40
2018-05-11T22:44:26.681Z,82.30
2018-05-11T22:46:54.116Z,82.60
2018-05-11T22:49:21.588Z,82.60
2018-05-11T22:51:49.058Z,82.60
2018-05-11T22:54:16.521Z,82.70
2018-05-11T22:56:43.951Z,82.90
2018-05-11T22:59:11.404Z,83.50
2018-05-11T23:01:39.226Z,83.90
2018-05-11T23:04:06.687Z,83.90
2018-05-11T23:06:34.165Z,84.30
2018-05-11T23:09:01.601Z,84.90
2018-05-11T23:11:29.060Z,85.20
2018-05-11T23:13:56.517Z,85.40
2018-05-11T23:16:24.067Z,85.80
2018-05-11T23:18:51.512Z,86.00
2018-05-11T23:21:19.021Z,86.30
2018-05-11T23:23:46.440Z,86.40
2018-05-11T23:26:13.883Z,86.70
2018-05-11T23:28:41.329Z,86.90
2018-05-11T23:31:08.775Z,87.40
2018-05-11T23:33:36.226Z,87.70
2018-05-11T23:36:03.699Z,88.30
2018-05-11T23:38:31.169Z,88.60
2018-05-11T23:40:58.634Z,89.10
2018-05-11T23:43:26.107Z,89.80
2018-05-11T23:45:53.943Z,90.50
2018-05-11T23:48:21.376Z,90.60
2018-05-11T23:50:48.901Z,90.30
2018-05-11T23:53:16.340Z,90.30
2018-05-11T23:55:43.802Z,90.40
2018-05-11T23:58:11.266Z,90.50
